createdAt,value
2022-12-26T00:00:59.862Z,2.10
2022-12-26T00:04:03.237Z,2.10
2022-12-26T00:07:08.155Z,2.20
2022-12-26T00:10:11.660Z,2.30
2022-12-26T00:13:38.613Z,2.30
2022-12-26T00:16:40.471Z,2.30
2022-12-26T00:19:43.853Z,2.30
2022-12-26T00:22:49.084Z,2.20
2022-12-26T00:25:52.890Z,2.20
2022-12-26T00:28:56.883Z,2.20
2022-12-26T00:32:00.302Z,2.20
2022-12-26T00:35:03.766Z,2.20
2022-12-26T00:38:08.520Z,2.20
2022-12-26T00:41:13.404Z,2.20
2022-12-26T00:44:17.074Z,2.20
2022-12-26T00:47:20.358Z,2.20
2022-12-26T00:50:25.458Z,2.20
2022-12-26T00:53:31.979Z,2.30
2022-12-26T00:56:35.321Z,2.30
2022-12-26T00:59:38.752Z,2.40
2022-12-26T01:02:42.344Z,2.30
2022-12-26T01:05:47.647Z,2.30
2022-12-26T01:08:53.805Z,2.30
2022-12-26T01:11:57.042Z,2.30
2022-12-26T01:15:00.587Z,2.30
2022-12-26T01:18:04.094Z,2.40
2022-12-26T01:21:10.185Z,2.40
2022-12-26T01:24:14.869Z,2.40
2022-12-26T01:27:18.295Z,2.40
2022-12-26T01:30:21.662Z,2.50
2022-12-26T01:33:24.934Z,2.50
2022-12-26T01:36:28.205Z,2.50
2022-12-26T01:42:39.766Z,2.50
2022-12-26T01:45:44.321Z,2.50
2022-12-26T01:48:48.023Z,2.60
2022-12-26T01:51:54.411Z,2.60
2022-12-26T01:54:59.888Z,2.60
2022-12-26T01:58:06.176Z,2.70
2022-12-26T02:01:10.988Z,2.60
2022-12-26T02:04:31.800Z,2.60
2022-12-26T02:07:36.301Z,2.60
2022-12-26T02:10:51.720Z,2.70
2022-12-26T02:13:56.043Z,2.80
2022-12-26T02:16:59.523Z,2.80
2022-12-26T02:20:11.410Z,2.80
2022-12-26T02:23:43.573Z,2.80
2022-12-26T02:27:15.725Z,2.90
2022-12-26T02:30:43.503Z,2.80
2022-12-26T02:34:02.198Z,2.90
2022-12-26T02:37:21.918Z,2.90
2022-12-26T02:40:42.722Z,2.80
2022-12-26T02:43:55.515Z,2.90
2022-12-26T02:47:07.804Z,3.30
2022-12-26T02:50:34.551Z,2.80
2022-12-26T02:54:04.583Z,2.90
2022-12-26T02:57:30.654Z,2.90
2022-12-26T03:00:55.095Z,2.80
2022-12-26T03:04:23.170Z,2.70
2022-12-26T03:07:47.116Z,2.70
2022-12-26T03:11:10.433Z,2.80
2022-12-26T03:14:18.611Z,2.80
2022-12-26T03:17:27.347Z,2.80
2022-12-26T03:20:35.388Z,2.70
2022-12-26T03:23:42.096Z,2.70
2022-12-26T03:26:50.167Z,2.80
2022-12-26T03:30:12.820Z,2.80
2022-12-26T03:33:30.133Z,2.80
2022-12-26T03:36:42.979Z,2.80
2022-12-26T03:40:12.353Z,2.80
2022-12-26T03:43:42.952Z,2.80
2022-12-26T03:47:19.499Z,2.80
2022-12-26T03:50:50.181Z,2.80
2022-12-26T03:54:17.708Z,2.80
2022-12-26T03:57:42.612Z,2.80
2022-12-26T04:01:04.855Z,2.80
2022-12-26T04:04:44.274Z,2.80
2022-12-26T04:08:14.862Z,2.80
2022-12-26T04:11:42.072Z,2.90
2022-12-26T04:15:06.664Z,2.80
2022-12-26T04:18:31.656Z,2.80
2022-12-26T04:22:00.469Z,2.90
2022-12-26T04:25:50.644Z,2.90
2022-12-26T04:29:08.827Z,2.90
2022-12-26T04:32:34.116Z,2.90
2022-12-26T04:36:01.927Z,2.90
2022-12-26T04:39:25.172Z,2.90
2022-12-26T04:42:46.875Z,2.90
2022-12-26T04:45:52.100Z,2.90
2022-12-26T04:49:14.271Z,2.90
2022-12-26T04:52:17.686Z,3.50
2022-12-26T04:55:22.371Z,2.90
2022-12-26T04:58:27.546Z,3.00
2022-12-26T05:01:49.684Z,3.00
2022-12-26T05:05:10.106Z,2.90
2022-12-26T05:08:36.504Z,2.90
2022-12-26T05:11:39.627Z,2.90
2022-12-26T05:14:42.798Z,2.90
2022-12-26T05:18:05.128Z,2.90
2022-12-26T05:21:29.930Z,2.90
2022-12-26T05:24:55.346Z,2.90
2022-12-26T05:28:21.461Z,2.90
2022-12-26T05:31:28.304Z,3.00
2022-12-26T05:34:34.813Z,2.90
2022-12-26T05:37:38.070Z,2.90
2022-12-26T05:40:41.262Z,2.90
2022-12-26T05:43:44.470Z,2.90
2022-12-26T05:46:48.638Z,2.90
2022-12-26T05:52:58.079Z,2.90
2022-12-26T05:56:05.029Z,2.80
2022-12-26T05:59:08.173Z,3.00
2022-12-26T06:02:11.474Z,3.00
2022-12-26T06:05:16.269Z,2.90
2022-12-26T06:08:19.428Z,2.90
2022-12-26T06:11:23.095Z,2.90
2022-12-26T06:14:26.341Z,2.90
2022-12-26T06:17:29.543Z,2.90
2022-12-26T06:20:34.064Z,2.90
2022-12-26T06:23:37.806Z,3.00
2022-12-26T06:26:41.335Z,2.90
2022-12-26T06:29:44.697Z,3.00
2022-12-26T06:32:47.855Z,2.90
2022-12-26T06:38:56.881Z,2.90
2022-12-26T06:42:00.561Z,3.00
2022-12-26T06:45:04.474Z,3.10
2022-12-26T06:48:08.043Z,3.10
2022-12-26T06:51:14.115Z,3.20
2022-12-26T06:54:17.313Z,3.10
2022-12-26T06:57:20.666Z,3.10
2022-12-26T07:00:24.512Z,3.10
2022-12-26T07:03:29.278Z,3.10
2022-12-26T07:06:36.085Z,3.10
2022-12-26T07:09:39.430Z,3.10
2022-12-26T07:12:42.708Z,3.20
2022-12-26T07:15:46.095Z,3.10
2022-12-26T07:18:49.447Z,3.10
2022-12-26T07:24:57.863Z,3.30
2022-12-26T07:28:01.680Z,3.40
2022-12-26T07:31:05.851Z,3.40
2022-12-26T07:34:09.465Z,3.40
2022-12-26T07:40:17.672Z,3.40
2022-12-26T07:43:20.988Z,3.40
2022-12-26T07:46:26.988Z,3.40
2022-12-26T07:49:30.261Z,3.50
2022-12-26T07:55:39.435Z,3.60
2022-12-26T07:58:42.728Z,3.60
2022-12-26T08:01:46.265Z,3.50
2022-12-26T08:04:49.621Z,3.60
2022-12-26T08:07:54.156Z,3.60
2022-12-26T08:11:02.184Z,3.60
2022-12-26T08:14:05.884Z,3.70
2022-12-26T08:17:10.107Z,3.70
2022-12-26T08:20:13.703Z,3.70
2022-12-26T08:23:18.731Z,6.30
2022-12-26T08:26:23.210Z,3.80
2022-12-26T08:29:26.584Z,3.80
2022-12-26T08:32:29.977Z,3.90
2022-12-26T08:35:34.917Z,4.00
2022-12-26T08:38:40.295Z,4.00
2022-12-26T08:41:43.853Z,4.10
2022-12-26T08:44:47.637Z,4.10
2022-12-26T08:47:51.233Z,4.20
2022-12-26T08:51:02.834Z,4.30
2022-12-26T08:54:08.054Z,4.30
2022-12-26T08:57:11.540Z,4.40
2022-12-26T09:00:16.647Z,3.60
2022-12-26T09:03:20.325Z,4.60
2022-12-26T09:06:23.932Z,4.60
2022-12-26T09:09:28.895Z,4.70
2022-12-26T09:12:32.292Z,4.90
2022-12-26T09:15:35.635Z,4.90
2022-12-26T09:18:39.346Z,5.00
2022-12-26T09:24:48.565Z,5.20
2022-12-26T09:27:58.854Z,5.30
2022-12-26T09:31:03.335Z,5.30
2022-12-26T09:34:08.651Z,5.40
2022-12-26T09:37:11.995Z,5.40
2022-12-26T09:40:24.615Z,5.40
2022-12-26T09:43:39.179Z,5.40
2022-12-26T09:46:53.970Z,5.50
2022-12-26T09:50:04.125Z,5.50
2022-12-26T09:53:12.914Z,5.50
2022-12-26T09:57:01.111Z,5.60
2022-12-26T09:59:50.343Z,5.60
2022-12-26T10:02:56.831Z,5.70
2022-12-26T10:06:11.776Z,5.70
2022-12-26T10:09:33.312Z,5.70
2022-12-26T10:12:43.823Z,5.70
2022-12-26T10:15:51.259Z,5.70
2022-12-26T10:19:03.200Z,5.70
2022-12-26T10:22:20.817Z,5.80
2022-12-26T10:25:33.748Z,5.80
2022-12-26T10:28:46.067Z,5.80
2022-12-26T10:31:53.432Z,5.80
2022-12-26T10:34:56.972Z,5.90
2022-12-26T10:38:06.092Z,5.90
2022-12-26T10:41:14.565Z,5.90
2022-12-26T10:44:25.718Z,5.90
2022-12-26T10:47:37.874Z,5.90
2022-12-26T10:50:44.931Z,5.90
2022-12-26T10:53:52.229Z,5.90
2022-12-26T10:56:58.410Z,5.90
2022-12-26T11:00:06.071Z,5.90
2022-12-26T11:03:12.633Z,5.90
2022-12-26T11:06:16.159Z,5.90
2022-12-26T11:09:40.708Z,5.90
2022-12-26T11:12:50.785Z,5.90
2022-12-26T11:15:58.364Z,6.00
2022-12-26T11:19:02.872Z,6.00
2022-12-26T11:22:27.177Z,6.10
2022-12-26T11:25:38.974Z,6.10
2022-12-26T11:28:42.338Z,6.20
2022-12-26T11:31:57.845Z,6.30
2022-12-26T11:35:01.291Z,6.40
2022-12-26T11:38:07.595Z,6.40
2022-12-26T11:41:30.981Z,6.60
2022-12-26T11:44:41.061Z,6.70
2022-12-26T11:47:47.712Z,6.90
2022-12-26T11:50:52.075Z,7.20
2022-12-26T11:54:19.868Z,7.40
2022-12-26T11:57:28.465Z,7.60
2022-12-26T12:00:32.275Z,7.50
2022-12-26T12:03:48.587Z,7.40
2022-12-26T12:07:02.483Z,7.40
2022-12-26T12:10:33.293Z,7.60
2022-12-26T12:13:49.685Z,7.50
2022-12-26T12:17:02.552Z,7.30
2022-12-26T12:20:30.290Z,7.30
2022-12-26T12:23:48.464Z,7.30
2022-12-26T12:27:04.570Z,7.20
2022-12-26T12:30:18.120Z,7.20
2022-12-26T12:33:38.379Z,7.10
2022-12-26T12:37:00.197Z,3.20
2022-12-26T12:40:14.667Z,7.10
2022-12-26T12:43:23.411Z,7.10
2022-12-26T12:46:36.796Z,7.20
2022-12-26T12:50:00.181Z,7.10
2022-12-26T12:53:14.646Z,7.10
2022-12-26T12:56:26.146Z,7.10
2022-12-26T12:59:39.971Z,7.10
2022-12-26T13:02:47.807Z,7.10
2022-12-26T13:05:59.152Z,7.10
2022-12-26T13:09:08.292Z,7.10
2022-12-26T13:12:19.464Z,7.00
2022-12-26T13:15:31.030Z,7.10
2022-12-26T13:18:38.829Z,7.10
2022-12-26T13:21:44.560Z,7.10
2022-12-26T13:24:56.890Z,7.10
2022-12-26T13:28:09.681Z,7.10
2022-12-26T13:31:14.044Z,7.20
2022-12-26T13:34:19.939Z,7.20
2022-12-26T13:37:55.981Z,7.30
2022-12-26T13:41:24.813Z,7.30
2022-12-26T13:44:27.848Z,7.30
2022-12-26T13:47:37.351Z,7.30
2022-12-26T13:50:55.726Z,7.20
2022-12-26T13:54:03.892Z,7.10
2022-12-26T13:57:38.706Z,7.00
2022-12-26T14:00:46.402Z,7.00
2022-12-26T14:04:04.875Z,6.90
2022-12-26T14:07:22.735Z,7.00
2022-12-26T14:10:39.876Z,6.90
2022-12-26T14:14:06.126Z,6.80
2022-12-26T14:17:23.731Z,6.70
2022-12-26T14:20:42.594Z,6.70
2022-12-26T14:23:53.323Z,6.60
2022-12-26T14:27:09.851Z,6.60
2022-12-26T14:30:25.524Z,6.60
2022-12-26T14:33:36.875Z,6.60
2022-12-26T14:36:47.346Z,6.60
2022-12-26T14:40:06.334Z,6.50
2022-12-26T14:43:27.644Z,6.40
2022-12-26T14:47:04.912Z,6.40
2022-12-26T14:50:40.404Z,6.30
2022-12-26T14:53:46.045Z,6.10
2022-12-26T14:56:50.676Z,6.00
2022-12-26T15:00:26.701Z,5.70
2022-12-26T15:03:47.772Z,5.90
2022-12-26T15:07:20.760Z,5.80
2022-12-26T15:11:02.429Z,5.80
2022-12-26T15:14:33.341Z,5.90
2022-12-26T15:17:47.608Z,5.90
2022-12-26T15:21:38.165Z,5.80
2022-12-26T15:28:48.360Z,5.80
2022-12-26T15:32:06.477Z,5.80
2022-12-26T15:35:20.117Z,5.70
2022-12-26T15:38:33.573Z,5.50
2022-12-26T15:41:44.432Z,5.40
2022-12-26T15:44:58.569Z,5.20
2022-12-26T15:48:08.383Z,5.20
2022-12-26T15:51:15.612Z,5.10
2022-12-26T15:54:35.025Z,5.30
2022-12-26T15:57:50.012Z,5.20
2022-12-26T16:00:55.631Z,5.20
2022-12-26T16:04:01.711Z,5.40
2022-12-26T16:07:10.498Z,5.50
2022-12-26T16:10:30.189Z,5.50
2022-12-26T16:13:34.898Z,5.60
2022-12-26T16:16:39.747Z,5.80
2022-12-26T16:19:44.834Z,5.90
2022-12-26T16:22:47.958Z,5.90
2022-12-26T16:25:56.284Z,6.20
2022-12-26T16:29:01.864Z,6.20
2022-12-26T16:32:06.697Z,6.30
2022-12-26T16:35:20.560Z,6.20
2022-12-26T16:38:28.267Z,6.30
2022-12-26T16:42:01.432Z,6.30
2022-12-26T16:45:07.034Z,6.40
2022-12-26T16:48:14.848Z,6.40
2022-12-26T16:51:39.602Z,6.50
2022-12-26T16:54:43.464Z,6.60
2022-12-26T16:57:48.442Z,6.70
2022-12-26T17:01:02.809Z,6.70
2022-12-26T17:04:17.325Z,6.80
2022-12-26T17:07:21.757Z,6.70
2022-12-26T17:10:28.133Z,6.70
2022-12-26T17:13:33.233Z,8.30
2022-12-26T17:16:36.936Z,6.80
2022-12-26T17:19:42.394Z,6.80
2022-12-26T17:22:45.909Z,6.80
2022-12-26T17:25:50.986Z,6.90
2022-12-26T17:31:59.861Z,6.90
2022-12-26T17:35:06.659Z,7.00
2022-12-26T17:38:20.507Z,7.00
2022-12-26T17:41:24.352Z,7.00
2022-12-26T17:44:50.081Z,6.90
2022-12-26T17:47:56.941Z,6.90
2022-12-26T17:51:02.828Z,6.80
2022-12-26T17:54:06.794Z,6.80
2022-12-26T17:57:21.287Z,6.80
2022-12-26T18:00:30.367Z,6.90
2022-12-26T18:03:35.257Z,6.90
2022-12-26T18:06:42.258Z,6.80
2022-12-26T18:09:47.612Z,6.80
2022-12-26T18:12:53.322Z,6.80
2022-12-26T18:15:59.749Z,6.90
2022-12-26T18:19:04.023Z,6.80
2022-12-26T18:22:12.496Z,6.80
2022-12-26T18:25:24.536Z,6.80
2022-12-26T18:28:35.929Z,6.80
2022-12-26T18:31:49.997Z,6.80
2022-12-26T18:34:57.241Z,6.90
2022-12-26T18:38:03.834Z,6.80
2022-12-26T18:41:14.993Z,6.80
2022-12-26T18:44:29.271Z,6.80
2022-12-26T18:50:40.946Z,7.60
2022-12-26T18:53:44.557Z,6.90
2022-12-26T18:56:48.035Z,6.90
2022-12-26T18:59:53.003Z,6.90
2022-12-26T19:02:58.354Z,6.90
2022-12-26T19:06:01.894Z,6.80
2022-12-26T19:09:07.969Z,6.80
2022-12-26T19:12:11.890Z,6.80
2022-12-26T19:15:17.173Z,6.80
2022-12-26T19:18:22.265Z,6.70
2022-12-26T19:21:26.595Z,6.70
2022-12-26T19:24:34.542Z,6.70
2022-12-26T19:27:38.583Z,6.70
2022-12-26T19:30:42.325Z,6.70
2022-12-26T19:33:50.505Z,6.70
2022-12-26T19:36:54.332Z,6.70
2022-12-26T19:40:00.140Z,6.80
2022-12-26T19:43:03.725Z,6.80
2022-12-26T19:46:11.600Z,6.80
2022-12-26T19:49:17.545Z,6.80
2022-12-26T19:52:21.285Z,6.80
2022-12-26T19:55:24.832Z,6.90
2022-12-26T19:58:32.462Z,6.80
2022-12-26T20:01:36.255Z,6.80
2022-12-26T20:04:43.047Z,6.20
2022-12-26T20:07:47.994Z,6.80
2022-12-26T20:10:55.875Z,6.80
2022-12-26T20:14:08.275Z,6.80
2022-12-26T20:17:13.684Z,6.80
2022-12-26T20:20:22.478Z,6.70
2022-12-26T20:23:29.835Z,6.80
2022-12-26T20:26:38.089Z,6.70
2022-12-26T20:29:44.341Z,6.70
2022-12-26T20:32:56.369Z,6.60
2022-12-26T20:36:06.653Z,6.60
2022-12-26T20:39:16.524Z,6.70
2022-12-26T20:42:23.767Z,6.70
2022-12-26T20:45:28.686Z,6.70
2022-12-26T20:48:33.927Z,6.70
2022-12-26T20:51:42.752Z,6.70
2022-12-26T20:54:49.392Z,6.70
2022-12-26T20:57:53.018Z,6.60
2022-12-26T21:01:00.746Z,6.70
2022-12-26T21:04:06.202Z,6.70
2022-12-26T21:07:12.769Z,6.70
2022-12-26T21:10:17.559Z,6.70
2022-12-26T21:13:25.807Z,6.60
2022-12-26T21:16:36.855Z,6.70
2022-12-26T21:19:41.855Z,6.60
2022-12-26T21:22:52.775Z,6.60
2022-12-26T21:25:59.247Z,6.70
2022-12-26T21:29:04.822Z,6.70
2022-12-26T21:32:11.056Z,6.60
2022-12-26T21:35:14.955Z,6.60
2022-12-26T21:38:21.674Z,6.60
2022-12-26T21:41:27.603Z,6.60
2022-12-26T21:44:31.123Z,6.60
2022-12-26T21:47:34.585Z,6.70
2022-12-26T21:50:38.960Z,6.70
2022-12-26T21:53:43.906Z,6.70
2022-12-26T21:56:46.313Z,6.70
2022-12-26T21:59:59.282Z,6.70
2022-12-26T22:03:23.177Z,6.70
2022-12-26T22:06:27.504Z,6.70
2022-12-26T22:09:32.903Z,6.70
2022-12-26T22:12:53.418Z,6.70
2022-12-26T22:16:08.194Z,6.70
2022-12-26T22:19:12.424Z,6.70
2022-12-26T22:22:16.378Z,6.70
2022-12-26T22:25:23.039Z,6.80
2022-12-26T22:28:29.566Z,6.80
2022-12-26T22:31:39.016Z,6.70
2022-12-26T22:34:43.810Z,6.70
2022-12-26T22:37:48.619Z,6.90
2022-12-26T22:40:59.003Z,6.90
2022-12-26T22:44:02.105Z,6.90
2022-12-26T22:47:05.627Z,6.90
2022-12-26T22:50:11.842Z,6.90
2022-12-26T22:53:15.678Z,6.90
2022-12-26T22:56:21.488Z,7.00
2022-12-26T22:59:58.128Z,6.90
2022-12-26T23:02:48.167Z,6.80
2022-12-26T23:05:52.390Z,6.90
2022-12-26T23:08:57.874Z,6.80
2022-12-26T23:12:28.851Z,6.80
2022-12-26T23:15:32.491Z,6.80
2022-12-26T23:18:59.003Z,6.80
2022-12-26T23:22:04.036Z,6.70
2022-12-26T23:25:08.519Z,6.70
2022-12-26T23:28:30.731Z,6.70
2022-12-26T23:31:34.116Z,6.60
2022-12-26T23:34:38.254Z,6.50
2022-12-26T23:37:42.304Z,6.40
2022-12-26T23:40:45.740Z,6.30
2022-12-26T23:43:50.817Z,6.20
2022-12-26T23:46:54.209Z,6.10
2022-12-26T23:49:57.628Z,6.20
2022-12-26T23:53:01.461Z,6.10
2022-12-26T23:56:08.715Z,6.10
2022-12-26T23:59:13.513Z,6.00
